Latest Coastal Weather Observations for Groote Eylandt Airport

IDD60701

Issued at 12:31 pm CST Monday 21 May 2018 (issued every 10 minutes, with the page automatically refreshed every 10 minutes)

About coastal observations | Map of coastal stations | Coastal observations for NT | Marine services | Other Formats
Station Details ID: 014518 Name: GROOTE EYLANDT AIRPORT Lat: -13.97 Lon: 136.46 Height: 13.7 m
Data from the previous 72 hours. | See also: Recent months at Groote Eylandt Airport
Date/Time
CST
Temp
°C
Wind Pressure Rain since
9am
mm
Weather Cloud Vis
km
Sea
Height
m
Swell
Dir  Spd
kts
Gust
kts
hPa Trend Height
m
Period
s
Dir
21/12:30pm 29.3 ESE 11 19 1013.2 - 0.0 - Partly cloudy 10 - - - -
21/12:00pm 29.0 SE 9 16 1013.6 - 0.0 - Mostly cloudy 10 - - - -
21/11:30am 29.9 SE 10 21 1013.8 - 0.0 - Partly cloudy 10 - - - -
21/11:00am 29.0 SE 9 14 1014.1 - 0.0 - - 10 - - - -
21/10:30am 28.4 SE 10 19 1014.2 - 0.0 - - 10 - - - -
21/10:00am 28.7 SE 8 14 1014.4 - 0.0 - - 10 - - - -
21/09:30am 27.8 SE 9 16 1014.3 - 0.0 - - 10 - - - -
21/09:00am 27.9 SE 11 23 1014.0 - 0.0 - Partly cloudy 10 - - - -
21/08:30am 27.5 SE 9 17 1013.7 - 0.0 - - 10 - - - -
21/08:00am 26.1 SE 7 13 1013.7 - 0.0 - Partly cloudy 10 - - - -
21/07:30am 25.9 SE 7 13 1013.4 - 0.0 - Partly cloudy 10 - - - -
21/07:00am 25.7 SE 5 9 1012.9 - 0.0 - Partly cloudy 10 - - - -
21/06:30am 25.7 SE 7 14 1012.4 - 0.0 - Partly cloudy 10 - - - -
21/06:00am 25.6 SE 6 11 1012.2 - 0.0 - Mostly clear 10 - - - -
21/05:30am 25.5 SE 7 11 1011.8 - 0.0 - - 10 - - - -
21/05:00am 25.1 SE 5 8 1011.9 - 0.0 - - 10 - - - -
21/04:30am 24.3 SE 5 6 1011.8 - 0.0 - Partly cloudy 10 - - - -
21/04:00am 24.0 SSE 3 5 1012.0 - 0.0 - - 10 - - - -
21/03:30am 24.0 SE 3 4 1012.1 - 0.0 - Partly cloudy 10 - - - -
21/03:00am 24.2 SE 4 6 1012.3 - 0.0 - Cloudy 10 - - - -
21/02:30am 24.3 ESE 3 5 1012.6 - 0.0 - Partly cloudy 10 - - - -
21/02:00am 24.1 SE 3 5 1012.7 - 0.0 - - 10 - - - -
21/01:30am 24.0 ESE 3 5 1012.9 - 0.0 - - 10 - - - -
21/01:00am 24.4 ESE 3 5 1013.2 - 0.0 - - 10 - - - -
21/12:30am 24.6 ESE 4 6 1013.5 - 0.0 - - 10 - - - -
21/12:00am 24.7 SE 4 8 1013.7 - 0.0 - Mostly clear 10 - - - -
 
Date/Time
CST
Temp
°C
Wind Pressure Rain since
9am
mm
Weather Cloud Vis
km
Sea
Height
m
Swell
Dir  Spd
kts
Gust
kts
hPa Trend Height
m
Period
s
Dir
20/11:30pm 24.8 ESE 5 7 1013.9 - 0.0 - - 10 - - - -
20/11:00pm 24.7 SE 5 7 1014.1 - 0.0 - - 10 - - - -
20/10:30pm 24.8 SE 5 7 1014.2 - 0.0 - - 10 - - - -
20/10:00pm 24.8 SSE 5 7 1014.2 - 0.0 - - 10 - - - -
20/09:30pm 24.9 SE 5 11 1014.2 - 0.0 - Partly cloudy 10 - - - -
20/09:00pm 25.0 SE 5 8 1014.3 - 0.0 - - 10 - - - -
20/08:30pm 25.1 SE 5 7 1014.1 - 0.0 - - 10 - - - -
20/08:00pm 25.2 SE 6 9 1013.7 - 0.0 - - 10 - - - -
20/07:30pm 25.2 SE 7 11 1013.3 - 0.0 - - 10 - - - -
20/07:00pm 25.2 SE 7 13 1012.8 - 0.0 - - 10 - - - -
20/06:30pm 25.4 SE 6 11 1012.7 - 0.0 - - 10 - - - -
20/06:00pm 25.7 SSE 7 11 1012.6 - 0.0 - - 10 - - - -
20/05:30pm 26.1 SE 7 13 1012.4 - 0.0 - Partly cloudy 10 - - - -
20/05:00pm 26.6 SE 8 13 1012.3 - 0.0 - Partly cloudy 10 - - - -
20/04:30pm 27.3 SE 7 15 1012.2 - 0.0 - Partly cloudy 10 - - - -
20/04:00pm 27.4 SE 7 12 1012.0 - 0.0 - Partly cloudy 10 - - - -
20/03:30pm 28.1 SE 7 14 1011.9 - 0.0 - Partly cloudy 10 - - - -
20/03:00pm 28.6 SSE 8 11 1011.7 - 0.0 - Cloudy 10 - - - -
20/02:30pm 29.5 ESE 9 16 1011.8 - 0.0 - Partly cloudy 10 - - - -
20/02:00pm 29.8 ESE 11 17 1012.0 - 0.0 - Partly cloudy 10 - - - -
20/01:30pm 28.8 ESE 9 17 1012.4 - 0.0 - Partly cloudy 10 - - - -
20/01:00pm 30.2 ESE 11 15 1012.5 - 0.0 - Partly cloudy 10 - - - -
20/12:30pm 30.5 ESE 11 17 1012.8 - 0.0 - Partly cloudy 10 - - - -
20/12:00pm 30.4 SE 9 14 1013.0 - 0.0 - - 10 - - - -
20/11:30am 29.6 SE 9 14 1013.4 - 0.0 - Partly cloudy 10 - - - -
20/11:00am 29.9 SE 7 15 1013.4 - 0.0 - Partly cloudy 10 - - - -
20/10:30am 29.3 ESE 10 17 1013.6 - 0.0 - - 10 - - - -
20/10:00am 28.4 SE 10 17 1013.7 - 0.0 - - 10 - - - -
20/09:30am 27.8 SE 12 21 1013.7 - 0.0 - - 10 - - - -
20/09:00am 27.3 SE 10 15 1013.5 - 0.0 - - 10 - - - -
20/08:30am 26.7 SE 8 15 1013.1 - 0.0 - - 10 - - - -
20/08:00am 26.0 SE 7 12 1013.0 - 0.0 - - 10 - - - -
20/07:30am 24.9 SSE 5 8 1012.6 - 0.0 - - 10 - - - -
20/07:00am 24.1 SE 4 5 1012.3 - 0.0 - Partly cloudy 10 - - - -
20/06:30am 24.1 SSE 5 8 1011.8 - 0.0 - - 10 - - - -
20/06:00am 24.5 SE 5 8 1011.6 - 0.0 - - 10 - - - -
20/05:30am 24.6 SSE 6 9 1011.3 - 0.0 - - 10 - - - -
20/05:00am 24.6 SE 5 9 1011.2 - 0.0 - - 10 - - - -
20/04:30am 24.5 SE 5 10 1011.2 - 0.0 - Partly cloudy 10 - - - -
20/04:00am 24.1 SE 5 8 1011.0 - 0.0 - - 10 - - - -
20/03:30am 23.6 SE 3 6 1011.0 - 0.0 - - 10 - - - -
20/03:00am 23.9 SE 3 6 1011.1 - 0.0 - - 10 - - - -
20/02:30am 23.8 SE 3 5 1011.1 - 0.0 - - 10 - - - -
20/02:00am 23.8 SE 3 4 1011.4 - 0.0 - - 10 - - - -
20/01:30am 23.8 SE 3 4 1011.8 - 0.0 - - 10 - - - -
20/01:00am 24.0 SSE 4 7 1012.3 - 0.0 - - 10 - - - -
20/12:30am 24.3 SSE 4 6 1012.5 - 0.0 - Partly cloudy 10 - - - -
20/12:00am 24.6 SE 6 11 1012.7 - 0.0 - Cloudy 10 - - - -
 
Date/Time
CST
Temp
°C
Wind Pressure Rain since
9am
mm
Weather Cloud Vis
km
Sea
Height
m
Swell
Dir  Spd
kts
Gust
kts
hPa Trend Height
m
Period
s
Dir
19/11:30pm 24.7 SE 5 9 1013.0 - 0.0 - Cloudy 10 - - - -
19/11:00pm 24.7 SE 5 9 1013.4 - 0.0 - Cloudy 10 - - - -
19/10:30pm 24.8 SE 6 10 1013.4 - 0.0 - Partly cloudy 10 - - - -
19/10:00pm 24.9 SE 6 10 1013.5 - 0.0 - Partly cloudy 10 - - - -
19/09:30pm 24.9 SE 5 8 1013.5 - 0.0 - Cloudy 10 - - - -
19/09:00pm 25.0 SSE 5 8 1013.6 - 0.0 - Cloudy 10 - - - -
19/08:30pm 25.0 SSE 5 8 1013.5 - 0.0 - Partly cloudy 10 - - - -
19/08:00pm 24.8 SE 5 7 1013.1 - 0.0 - Partly cloudy 10 - - - -
19/07:30pm 24.7 SE 5 9 1012.6 - 0.0 - Partly cloudy 10 - - - -
19/07:00pm 24.7 SE 5 8 1012.3 - 0.0 - - 10 - - - -
19/06:30pm 24.7 SE 6 9 1012.0 - 0.0 - Partly cloudy 10 - - - -
19/06:00pm 25.2 SE 7 11 1011.7 - 0.0 - Partly cloudy 10 - - - -
19/05:30pm 25.8 SSE 7 11 1011.5 - 0.0 - Partly cloudy 10 - - - -
19/05:00pm 26.3 SE 7 13 1011.2 - 0.0 - Partly cloudy 10 - - - -
19/04:30pm 26.1 SSE 8 14 1010.9 - 0.0 - Partly cloudy 10 - - - -
19/04:00pm 26.5 SSE 7 12 1010.5 - 0.0 - Partly cloudy 10 - - - -
19/03:30pm 26.6 SSE 7 11 1010.4 - 0.0 - Partly cloudy 10 - - - -
19/03:00pm 26.8 SSE 9 14 1010.2 - 0.0 - Cloudy 10 - - - -
19/02:30pm 28.6 SE 8 15 1010.1 - 0.0 - Partly cloudy 10 - - - -
19/02:00pm 28.2 SSE 8 14 1010.4 - 0.0 - Partly cloudy 10 - - - -
19/01:30pm 29.3 ESE 9 15 1010.8 - 0.0 - Partly cloudy 10 - - - -
19/01:00pm 29.2 ESE 12 18 1011.0 - 0.0 - Partly cloudy 10 - - - -
19/12:30pm 29.4 ESE 12 18 1011.3 - 0.0 - Partly cloudy 10 - - - -
19/12:00pm 29.1 ESE 9 16 1011.5 - 0.0 - Mostly cloudy 10 - - - -
19/11:30am 29.3 ESE 8 12 1011.9 - 0.0 - Partly cloudy 10 - - - -
19/11:00am 28.3 ESE 11 16 1012.2 - 0.0 - Partly cloudy 10 - - - -
19/10:30am 27.9 SE 10 18 1012.5 - 0.0 - Partly cloudy 10 - - - -
19/10:00am 27.5 SE 9 17 1012.6 - 0.0 - - 10 - - - -
19/09:30am 27.0 SE 9 15 1012.6 - 0.0 - - 10 - - - -
19/09:00am 26.5 SE 9 16 1012.3 - 0.0 - - 10 - - - -
19/08:30am 26.0 SE 7 13 1012.3 - 0.0 - - 10 - - - -
19/08:00am 25.0 SE 6 9 1011.9 - 0.0 - - 10 - - - -
19/07:30am 24.2 SE 6 9 1011.9 - 0.0 - - 10 - - - -
19/07:00am 23.5 SE 5 8 1011.6 - 0.0 - - 10 - - - -
19/06:30am 23.3 SE 5 9 1011.4 - 0.0 - - 10 - - - -
19/06:00am 23.3 SE 6 8 1011.1 - 0.0 - - 10 - - - -
19/05:30am 23.4 SSE 6 11 1011.1 - 0.0 - - 10 - - - -
19/05:00am 23.4 SSE 6 8 1010.9 - 0.0 - - 10 - - - -
19/04:30am 23.7 SE 6 11 1010.9 - 0.0 - - 10 - - - -
19/04:00am 23.9 SE 7 14 1010.9 - 0.0 - - 10 - - - -
19/03:30am 24.0 SSE 6 12 1011.0 - 0.0 - - 10 - - - -
19/03:00am 23.7 SSE 6 12 1011.2 - 0.0 - - 10 - - - -
19/02:30am 23.4 SSE 5 7 1011.5 - 0.0 - - 10 - - - -
19/02:00am 23.0 SSE 5 8 1011.9 - 0.0 - - 10 - - - -
19/01:30am 23.3 SSE 5 7 1012.2 - 0.0 - - 10 - - - -
19/01:00am 23.6 SE 4 8 1012.3 - 0.0 - - 10 - - - -
19/12:30am 23.1 SE 4 6 1012.4 - 0.0 - Partly cloudy 10 - - - -
19/12:00am 23.3 SE 4 6 1012.8 - 0.0 - - 10 - - - -
 
Date/Time
CST
Temp
°C
Wind Pressure Rain since
9am
mm
Weather Cloud Vis
km
Sea
Height
m
Swell
Dir  Spd
kts
Gust
kts
hPa Trend Height
m
Period
s
Dir
18/11:30pm 23.6 SE 4 7 1013.2 - 0.0 - Partly cloudy 10 - - - -
18/11:00pm 23.9 SE 5 8 1013.4 - 0.0 - - 10 - - - -
18/10:30pm 24.1 SE 5 9 1013.5 - 0.0 - - 10 - - - -
18/10:00pm 23.8 SE 5 9 1013.5 - 0.0 - - 10 - - - -
18/09:30pm 23.1 SE 4 7 1013.7 - 0.0 - - 10 - - - -
18/09:00pm 23.1 ESE 4 6 1013.7 - 0.0 - - 10 - - - -
18/08:30pm 23.3 SE 4 7 1013.5 - 0.0 - - 10 - - - -
18/08:00pm 23.6 SE 5 7 1013.2 - 0.0 - - 10 - - - -
18/07:30pm 23.7 SE 5 7 1012.9 - 0.0 - - 10 - - - -
18/07:00pm 24.0 SE 5 10 1012.4 - 0.0 - - 10 - - - -
18/06:30pm 24.3 SE 7 11 1011.9 - 0.0 - - 10 - - - -
18/06:00pm 24.6 SE 8 16 1011.6 - 0.0 - - 10 - - - -
18/05:30pm 25.1 SE 9 16 1011.2 - 0.0 - - 10 - - - -
18/05:00pm 25.6 SE 9 15 1011.0 - 0.0 - Partly cloudy 10 - - - -
18/04:30pm 25.7 SE 9 15 1010.9 - 0.0 - Partly cloudy 10 - - - -
18/04:00pm 25.9 SE 9 17 1010.6 - 0.0 - Partly cloudy 10 - - - -
18/03:30pm 26.9 SE 9 15 1010.5 - 0.0 - Partly cloudy 10 - - - -
18/03:00pm 26.7 SE 9 13 1010.6 - 0.0 Showers Cloudy 10 - - - -
18/02:30pm 27.1 SE 11 19 1010.7 - 0.0 - Partly cloudy 10 - - - -
18/02:00pm 27.1 SE 9 16 1010.9 - 0.0 - Partly cloudy 10 - - - -
18/01:30pm 27.9 SE 8 14 1011.3 - 0.0 - Partly cloudy 10 - - - -
18/01:00pm 27.9 SSE 8 16 1011.7 - 0.0 - Partly cloudy 10 - - - -

Other Formats:

Comma delimited format used in spreadsheet applications
http://www.bom.gov.au/fwo/IDD60701/IDD60701.94153.axf

JavaScript Object Notation format (JSON) in row-major order
http://www.bom.gov.au/fwo/IDD60701/IDD60701.94153.json